หน้าหลัก
METAR-TAF:

METAR-TAF

ท่าอากาศยาน :

Army Air Corps Middle Wallop

Middle Wallop, อังกฤษ

ละติจูด: 51-09N, ลองจิจูด: 001-34W, ความสูง: 91 ม.

การสังเกตสภาพอากาศปัจจุบัน

รายงานได้ทำขึ้นเมื่อ 48 นาทีที่แล้ว ณ เวลา 03:50 UTC
ลม 6 นอตจากตะวันตกเฉียงใต้
อุณหภูมิ 14°C
ความชื้น 100%
ความกดอากาศ 1014 hPa
ทัศนวิสัย: 2400 ม.
ฝน

METAR: EGVP 080350Z AUTO 22006KT 2400 RA OVC003/// 14/14 Q1014

เวลา: 05:38 (04:38 UTC)

การพยากรณ์

รายงานได้ทำขึ้นเมื่อ 5 ชั่วโมงและ 22 นาทีที่แล้ว ณ เวลา 23:16 UTC
การพยากรณ์มีผลตั้งแต่วันที่ 07 ณ เวลา 23 UTC จนถึงวันที่ 08 ณ เวลา 01 UTC
ลม 12 นอตจากตะวันตก/ตะวันตกเฉียงใต้
ทัศนวิสัย 10 กม. หรือมากกว่า
มีเมฆเป็นส่วนมากเว้นเป็นระยะที่ความสูง 1400 ฟุต
ชั่วคราว
ตั้งแต่วันที่ 07 ณ เวลา 23 UTC จนถึงวันที่ 08 ณ เวลา 01 UTC
ทัศนวิสัย: 3000 ม.
ละอองฝน
ความน่าจะเป็น 40%
ตั้งแต่วันที่ 08 ณ เวลา 00 UTC จนถึงวันที่ 08 ณ เวลา 01 UTC
มีเมฆกระจายเป็นบางส่วนที่ความสูง 600 ฟุต

TAF: EGVP 072316Z 0723/0801 24012KT 9999 BKN014 TEMPO 0723/0801 3000 DZ PROB40 0800/0801 SCT006

สังเกตการณ์สภาพอากาศและพยากรณ์อากาศของสนามบินมากกว่า 4000 แห่ง (รายงาน METAR และ TAF).

สถานีที่ดูได้จะแสดงไว้ด้วยจุดสีเหลืองและสีแดงบนแผนที่.

เลื่อนเมาส์ไปเหนือจุดเพื่อดูชื่อสถานี.

แล้วคลิกเพื่อดูสังเกตการณ์และการพยากรณ์สภาพอากาศ.

ในการเปลี่ยนแผนที่: คลิกที่ปุ่มสีเขียวที่มีกากบาทสีดำเพื่อซูมเข้า; ที่ปุ่มสีเขียวที่มีขีดเพื่อซูมออก; หรือที่ลูกศรสีเขียวเพื่อไปยังแผนที่ที่อยู่ติดกัน.


METAR-TAF: